Time;durP1;ratioP1;P1;durP2;ratioP2;P2;SDS_P1;SDS_P2;PMS_P1;PMS_P2;Temp;Humidity;BMP_temperature;BMP_pressure;BME280_temperature;BME280_humidity;BME280_pressure;Samples;Min_cycle;Max_cycle;Signal;HPM_P1;HPM_P2
2022/10/31 00:01:19;;;;;;;27.20;17.42;;;307.80;2304.00;;;;;;5131561;27;20384;-60
2022/10/31 00:03:45;;;;;;;23.35;15.13;;;307.80;2304.00;;;;;;5131228;27;20072;-63
2022/10/31 00:06:11;;;;;;;15.50;10.50;;;307.80;2304.00;;;;;;5131398;27;20476;-62
2022/10/31 00:08:37;;;;;;;17.77;7.75;;;307.80;2304.00;;;;;;5131002;27;20473;-62
2022/10/31 00:11:02;;;;;;;25.98;17.40;;;307.80;2304.00;;;;;;5131595;27;20019;-62
2022/10/31 00:13:28;;;;;;;39.42;24.75;;;307.70;2304.00;;;;;;5131227;27;20022;-62
2022/10/31 00:15:54;;;;;;;40.80;26.15;;;307.70;2304.00;;;;;;5131157;27;20110;-62
2022/10/31 00:18:19;;;;;;;14.02;9.18;;;307.70;2304.00;;;;;;5131388;27;20043;-62
2022/10/31 00:20:45;;;;;;;8.82;6.47;;;307.60;2304.00;;;;;;5130922;27;20065;-64
2022/10/31 00:23:11;;;;;;;12.30;5.75;;;307.60;2304.00;;;;;;5131163;27;20473;-62
2022/10/31 00:25:39;;;;;;;11.10;6.50;;;307.60;2304.00;;;;;;5131063;27;20046;-62
2022/10/31 00:28:07;;;;;;;9.13;5.75;;;307.60;2304.00;;;;;;5131258;27;20023;-61
2022/10/31 00:30:33;;;;;;;18.15;8.48;;;307.60;2304.00;;;;;;5131254;28;20443;-63
2022/10/31 00:32:58;;;;;;;12.50;8.27;;;307.60;2304.00;;;;;;5130886;28;20465;-62
2022/10/31 00:35:24;;;;;;;13.43;4.97;;;307.60;2304.00;;;;;;5129765;28;20027;-62
2022/10/31 00:37:50;;;;;;;13.70;4.47;;;307.60;2304.00;;;;;;5130936;28;20354;-61
2022/10/31 00:40:15;;;;;;;8.45;5.40;;;307.60;2304.00;;;;;;5130629;28;20053;-63
2022/10/31 00:42:41;;;;;;;8.30;4.97;;;307.60;2304.00;;;;;;5131125;28;20102;-62
2022/10/31 00:45:09;;;;;;;7.40;4.82;;;307.70;2304.00;;;;;;5130869;28;20067;-63
2022/10/31 00:47:34;;;;;;;7.72;4.60;;;307.70;2304.00;;;;;;5130826;28;20039;-60
2022/10/31 00:50:00;;;;;;;9.52;5.00;;;307.70;2304.00;;;;;;5131531;27;20023;-62
2022/10/31 00:52:26;;;;;;;12.27;5.28;;;307.70;2304.00;;;;;;5134783;27;20034;-63
2022/10/31 00:54:51;;;;;;;9.77;5.30;;;307.70;2304.00;;;;;;5135122;27;20112;-61
2022/10/31 00:57:17;;;;;;;10.27;6.47;;;307.60;2304.00;;;;;;5134996;27;20031;-63
2022/10/31 00:59:43;;;;;;;13.43;8.07;;;307.60;2304.00;;;;;;5135025;27;20026;-62
2022/10/31 01:02:08;;;;;;;11.23;6.50;;;307.60;2304.00;;;;;;5133247;27;20468;-62
2022/10/31 01:04:34;;;;;;;13.88;6.18;;;307.40;2304.00;;;;;;5135060;27;20031;-61
2022/10/31 01:07:00;;;;;;;8.57;5.82;;;307.40;2304.00;;;;;;5134890;27;20027;-62
2022/10/31 01:09:25;;;;;;;13.98;8.45;;;307.40;2304.00;;;;;;5134365;27;20050;-60
2022/10/31 01:11:51;;;;;;;10.32;7.00;;;307.30;2304.00;;;;;;5134756;27;20023;-60
2022/10/31 01:14:17;;;;;;;10.90;8.18;;;307.40;2304.00;;;;;;5134696;27;20096;-60
2022/10/31 01:16:42;;;;;;;12.27;6.43;;;307.30;2304.00;;;;;;5134597;27;20027;-60
2022/10/31 01:19:08;;;;;;;15.15;5.45;;;307.30;2304.00;;;;;;5134362;27;20042;-62
2022/10/31 01:21:34;;;;;;;6.50;3.90;;;307.30;2304.00;;;;;;5134720;27;20027;-60
2022/10/31 01:24:03;;;;;;;11.27;5.85;;;307.30;2304.00;;;;;;5134464;27;20071;-60
2022/10/31 01:26:31;;;;;;;10.60;6.78;;;307.30;2304.00;;;;;;5134322;27;20015;-60
2022/10/31 01:28:59;;;;;;;8.85;5.18;;;307.30;2304.00;;;;;;5134277;27;20076;-61
2022/10/31 01:31:28;;;;;;;10.40;5.35;;;307.30;2304.00;;;;;;5134245;27;20050;-62
2022/10/31 01:33:54;;;;;;;8.98;5.20;;;307.30;2304.00;;;;;;5134348;27;20104;-62
2022/10/31 01:36:26;;;;;;;12.00;6.78;;;307.30;2304.00;;;;;;5134257;27;20038;-62
2022/10/31 01:38:53;;;;;;;13.20;7.63;;;307.30;2304.00;;;;;;5133996;27;20051;-61
2022/10/31 01:41:22;;;;;;;21.10;10.23;;;307.30;2304.00;;;;;;5133979;27;20025;-61
2022/10/31 01:43:55;;;;;;;23.15;10.80;;;307.30;2304.00;;;;;;5134115;27;20031;-62
2022/10/31 01:46:37;;;;;;;27.77;12.73;;;307.30;2304.00;;;;;;5134041;27;20019;-62
2022/10/31 01:49:09;;;;;;;17.08;8.98;;;307.30;2304.00;;;;;;5134053;27;20039;-61
2022/10/31 01:51:38;;;;;;;9.88;4.85;;;307.30;2304.00;;;;;;5134052;27;20079;-60
2022/10/31 01:54:12;;;;;;;10.18;5.50;;;307.20;2304.00;;;;;;5134030;27;20023;-60
2022/10/31 01:56:42;;;;;;;6.72;4.95;;;307.20;2304.00;;;;;;5133691;27;20106;-61
2022/10/31 01:59:11;;;;;;;10.43;4.57;;;307.20;2304.00;;;;;;5133739;27;20472;-62
2022/10/31 02:01:38;;;;;;;10.52;4.43;;;307.20;2304.00;;;;;;5132990;27;20043;-61
2022/10/31 02:04:04;;;;;;;7.10;3.55;;;307.20;2304.00;;;;;;5133961;27;20693;-61
2022/10/31 02:06:36;;;;;;;8.98;5.50;;;282.50;2278.40;;;;;;5133822;27;20521;-61
2022/10/31 02:09:05;;;;;;;9.88;5.28;;;282.50;2278.40;;;;;;5133735;27;20055;-61
2022/10/31 02:11:32;;;;;;;9.35;5.10;;;282.40;2278.40;;;;;;5133602;27;20039;-63
2022/10/31 02:14:00;;;;;;;13.18;6.45;;;282.50;2278.40;;;;;;5133411;27;20461;-61
2022/10/31 02:16:26;;;;;;;8.90;5.10;;;282.50;2278.40;;;;;;5133251;27;20023;-61
2022/10/31 02:18:52;;;;;;;7.13;3.20;;;282.50;2278.40;;;;;;5133443;27;20481;-61
2022/10/31 02:21:25;;;;;;;8.80;3.25;;;282.50;2278.40;;;;;;5133260;27;20477;-61
2022/10/31 02:24:24;;;;;;;12.15;4.65;;;282.50;2278.40;;;;;;5133538;27;20109;-61
2022/10/31 02:27:05;;;;;;;13.60;6.72;;;282.50;2278.40;;;;;;5133270;27;20361;-61
2022/10/31 02:29:31;;;;;;;9.55;5.93;;;282.50;2278.40;;;;;;5133269;27;20093;-62
2022/10/31 02:32:21;;;;;;;8.93;4.20;;;282.50;2278.40;;;;;;5132913;27;20023;-61
2022/10/31 02:34:57;;;;;;;9.75;5.30;;;282.50;2278.40;;;;;;5132436;27;20118;-61
2022/10/31 02:37:26;;;;;;;17.67;9.52;;;282.50;2278.40;;;;;;5133055;27;20027;-61
2022/10/31 02:40:03;;;;;;;14.27;7.15;;;282.50;2278.40;;;;;;5132845;27;20051;-60
2022/10/31 02:42:41;;;;;;;29.35;14.48;;;282.50;2278.40;;;;;;5132946;27;20023;-60
2022/10/31 02:45:30;;;;;;;18.85;9.10;;;282.40;2278.40;;;;;;5132914;27;20041;-62
2022/10/31 02:48:01;;;;;;;9.95;5.65;;;282.40;2278.40;;;;;;5132474;27;20027;-60
2022/10/31 02:50:31;;;;;;;19.02;10.48;;;282.30;2278.40;;;;;;5132675;27;20039;-61
2022/10/31 02:52:57;;;;;;;15.55;8.52;;;282.20;2278.40;;;;;;5132595;27;20537;-62
2022/10/31 02:55:22;;;;;;;13.18;5.38;;;282.20;2278.40;;;;;;5132873;27;20027;-60
2022/10/31 02:57:49;;;;;;;13.20;5.22;;;282.20;2278.40;;;;;;5132416;27;20051;-60
2022/10/31 03:00:15;;;;;;;10.10;6.07;;;282.10;2278.40;;;;;;5132622;27;20019;-61
2022/10/31 03:02:53;;;;;;;11.23;6.22;;;282.20;2278.40;;;;;;5132472;27;20426;-61
2022/10/31 03:05:40;;;;;;;10.85;5.32;;;282.10;2278.40;;;;;;5132398;27;20023;-61
2022/10/31 03:08:23;;;;;;;9.10;5.18;;;282.10;2278.40;;;;;;5132273;27;20035;-62
2022/10/31 03:11:01;;;;;;;6.45;4.50;;;282.00;2278.40;;;;;;5132255;27;20062;-61
2022/10/31 03:13:59;;;;;;;16.20;9.05;;;282.10;2278.40;;;;;;5131570;27;20027;-60
2022/10/31 03:16:47;;;;;;;32.42;16.13;;;282.00;2278.40;;;;;;5132483;27;20345;-61
2022/10/31 03:19:25;;;;;;;25.27;13.00;;;282.00;2278.40;;;;;;5132339;27;20106;-61
2022/10/31 03:22:00;;;;;;;13.43;7.70;;;282.00;2278.40;;;;;;5132470;27;20019;-61
2022/10/31 03:24:30;;;;;;;6.63;3.85;;;282.00;2278.40;;;;;;5131926;27;20024;-60
2022/10/31 03:26:59;;;;;;;8.05;5.18;;;282.00;2278.40;;;;;;5131770;27;20033;-60
2022/10/31 03:29:30;;;;;;;9.05;4.43;;;281.90;2278.40;;;;;;5131986;27;20120;-61
2022/10/31 03:32:02;;;;;;;14.05;8.32;;;281.90;2278.40;;;;;;5131733;27;20076;-61
2022/10/31 03:34:30;;;;;;;8.50;5.57;;;282.00;2278.40;;;;;;5131771;27;20023;-61
2022/10/31 03:37:02;;;;;;;15.32;7.38;;;282.00;2278.40;;;;;;5131662;27;20106;-61
2022/10/31 03:39:29;;;;;;;9.98;5.07;;;281.90;2278.40;;;;;;5131461;27;20049;-61
2022/10/31 03:42:04;;;;;;;12.40;5.50;;;281.90;2278.40;;;;;;5131755;27;20015;-61
2022/10/31 03:44:32;;;;;;;12.52;4.45;;;281.90;2278.40;;;;;;5131546;27;20019;-60
2022/10/31 03:46:58;;;;;;;7.30;4.55;;;281.90;2278.40;;;;;;5131685;27;20023;-60
2022/10/31 03:49:24;;;;;;;5.40;2.90;;;281.90;2278.40;;;;;;5131807;27;20058;-62
2022/10/31 03:52:05;;;;;;;6.70;3.60;;;281.90;2278.40;;;;;;5131608;27;20054;-62
2022/10/31 03:54:42;;;;;;;8.90;3.50;;;282.00;2278.40;;;;;;5131736;27;20027;-61
2022/10/31 03:57:19;;;;;;;7.13;3.45;;;282.20;2278.40;;;;;;5131286;27;20051;-60
2022/10/31 03:59:50;;;;;;;10.48;3.20;;;281.90;2278.40;;;;;;5131717;27;20038;-61
2022/10/31 04:02:20;;;;;;;5.30;3.20;;;281.90;2278.40;;;;;;5131129;27;20030;-62
2022/10/31 04:04:47;;;;;;;7.65;3.28;;;281.90;2278.40;;;;;;5131078;27;20023;-60
2022/10/31 04:07:14;;;;;;;5.82;3.50;;;281.90;2278.40;;;;;;5131242;27;20045;-61
2022/10/31 04:09:44;;;;;;;6.18;3.28;;;281.90;2278.40;;;;;;5131144;27;20068;-62
2022/10/31 04:12:14;;;;;;;7.70;3.60;;;281.90;2278.40;;;;;;5131025;27;20023;-60
2022/10/31 04:14:42;;;;;;;12.07;4.78;;;281.90;2278.40;;;;;;5131191;27;20373;-61
2022/10/31 04:17:13;;;;;;;10.40;4.85;;;281.90;2278.40;;;;;;5131099;27;20031;-61
2022/10/31 04:19:38;;;;;;;8.32;4.43;;;281.90;2278.40;;;;;;5131007;27;20016;-61
2022/10/31 04:22:04;;;;;;;8.20;3.75;;;281.80;2278.40;;;;;;5131194;27;20468;-61
2022/10/31 04:24:30;;;;;;;6.78;5.10;;;281.80;2278.40;;;;;;5130754;27;20057;-60
2022/10/31 04:26:55;;;;;;;11.23;5.43;;;281.80;2278.40;;;;;;5131082;27;20045;-60
2022/10/31 04:29:21;;;;;;;8.07;5.75;;;281.70;2278.40;;;;;;5131007;27;20046;-61
2022/10/31 04:31:47;;;;;;;9.35;5.40;;;281.70;2278.40;;;;;;5130967;28;20416;-61
2022/10/31 04:34:12;;;;;;;11.57;4.85;;;281.70;2278.40;;;;;;5131138;28;20476;-60
2022/10/31 04:36:38;;;;;;;13.13;4.75;;;281.80;2278.40;;;;;;5130715;28;20098;-60
2022/10/31 04:39:04;;;;;;;10.80;5.18;;;281.80;2278.40;;;;;;5130841;28;20055;-62
2022/10/31 04:41:29;;;;;;;10.55;5.65;;;281.80;2278.40;;;;;;5130686;28;20023;-60
2022/10/31 04:43:55;;;;;;;8.50;4.88;;;281.70;2278.40;;;;;;5130756;28;20385;-61
2022/10/31 04:46:21;;;;;;;27.13;14.63;;;281.70;2278.40;;;;;;5131151;28;20025;-61
2022/10/31 04:48:47;;;;;;;13.57;7.13;;;281.70;2278.40;;;;;;5130642;28;20108;-61
2022/10/31 04:51:12;;;;;;;11.57;6.85;;;281.70;2278.40;;;;;;5130895;28;20038;-61
2022/10/31 04:53:38;;;;;;;8.88;5.68;;;281.80;2278.40;;;;;;5130615;28;20019;-61
2022/10/31 04:56:04;;;;;;;9.48;5.78;;;281.80;2278.40;;;;;;5130926;28;20068;-63
2022/10/31 04:58:30;;;;;;;8.82;5.45;;;281.80;2278.40;;;;;;5130851;28;20019;-60
2022/10/31 05:00:56;;;;;;;11.63;4.30;;;281.80;2278.40;;;;;;5130614;28;20027;-60
2022/10/31 05:03:22;;;;;;;8.60;4.70;;;281.80;2278.40;;;;;;5130902;28;20030;-61
2022/10/31 05:05:48;;;;;;;9.07;4.65;;;281.80;2278.40;;;;;;5130459;28;20023;-60
2022/10/31 05:08:14;;;;;;;8.80;4.03;;;281.80;2278.40;;;;;;5130708;28;20119;-63
2022/10/31 05:10:39;;;;;;;11.38;5.45;;;281.80;2278.40;;;;;;5130400;28;20380;-60
2022/10/31 05:13:05;;;;;;;11.32;6.15;;;281.80;2278.40;;;;;;5130617;28;20110;-61
2022/10/31 05:15:32;;;;;;;10.70;4.60;;;281.80;2278.40;;;;;;5130686;28;20030;-61
2022/10/31 05:17:58;;;;;;;8.05;4.20;;;281.80;2278.40;;;;;;5130485;28;20391;-62
2022/10/31 05:20:27;;;;;;;5.93;4.00;;;281.90;2278.40;;;;;;5130746;28;20023;-61
2022/10/31 05:22:55;;;;;;;9.60;5.25;;;281.90;2278.40;;;;;;5130678;28;20471;-61
2022/10/31 05:25:22;;;;;;;13.27;4.95;;;281.90;2278.40;;;;;;5130560;28;20028;-60
2022/10/31 05:27:50;;;;;;;10.73;4.70;;;282.00;2278.40;;;;;;5130376;28;20057;-62
2022/10/31 05:30:19;;;;;;;10.55;5.50;;;281.90;2278.40;;;;;;5130262;28;20031;-60
2022/10/31 05:32:47;;;;;;;9.50;4.68;;;282.00;2278.40;;;;;;5130215;28;20027;-62
2022/10/31 05:35:15;;;;;;;8.02;5.03;;;282.10;2278.40;;;;;;5130682;27;20023;-59
2022/10/31 05:37:41;;;;;;;11.13;5.00;;;282.20;2278.40;;;;;;5133627;27;20023;-59
2022/10/31 05:40:10;;;;;;;12.25;5.60;;;282.20;2278.40;;;;;;5133717;27;20449;-61
2022/10/31 05:42:35;;;;;;;11.23;5.65;;;282.30;2278.40;;;;;;5133941;27;20019;-60
2022/10/31 05:45:01;;;;;;;12.05;5.35;;;282.40;2278.40;;;;;;5134054;27;20034;-61
2022/10/31 05:47:27;;;;;;;16.25;7.60;;;282.50;2278.40;;;;;;5133852;27;20545;-60
2022/10/31 05:49:53;;;;;;;15.32;8.15;;;307.20;2304.00;;;;;;5133889;27;20058;-60
2022/10/31 05:52:19;;;;;;;12.32;6.78;;;307.20;2304.00;;;;;;5133652;27;20019;-60
2022/10/31 05:54:45;;;;;;;10.57;6.43;;;307.30;2304.00;;;;;;5133656;27;20031;-61
2022/10/31 05:57:10;;;;;;;9.50;5.35;;;307.30;2304.00;;;;;;5133855;27;20034;-60
2022/10/31 05:59:36;;;;;;;8.32;5.20;;;307.30;2304.00;;;;;;5133737;27;20024;-61
2022/10/31 06:02:01;;;;;;;13.25;7.22;;;307.40;2304.00;;;;;;5133842;27;20027;-60
2022/10/31 06:04:27;;;;;;;12.43;6.63;;;307.50;2304.00;;;;;;5133597;27;20373;-59
2022/10/31 06:06:53;;;;;;;11.70;6.88;;;307.60;2304.00;;;;;;5133756;27;20020;-60
2022/10/31 06:09:19;;;;;;;15.02;8.43;;;307.70;2304.00;;;;;;5133212;27;20058;-61
2022/10/31 06:11:45;;;;;;;16.42;7.43;;;307.80;2304.00;;;;;;5133176;27;20019;-61
2022/10/31 06:14:10;;;;;;;8.88;5.60;;;307.90;2304.00;;;;;;5133408;27;20110;-60
2022/10/31 06:16:36;;;;;;;9.57;5.65;;;308.00;2304.00;;;;;;5133368;27;20027;-61
2022/10/31 06:19:02;;;;;;;9.98;5.85;;;308.10;2304.00;;;;;;5133533;27;20463;-62
2022/10/31 06:21:27;;;;;;;13.35;5.90;;;308.10;2304.00;;;;;;5133273;27;20027;-61
2022/10/31 06:23:53;;;;;;;11.35;6.00;;;308.10;2304.00;;;;;;5133468;27;20030;-61
2022/10/31 06:26:19;;;;;;;14.57;5.95;;;332.80;2329.60;;;;;;5132949;27;20030;-60
2022/10/31 06:28:44;;;;;;;10.95;5.70;;;332.90;2329.60;;;;;;5133138;27;20522;-60
2022/10/31 06:31:10;;;;;;;11.18;5.65;;;333.00;2329.60;;;;;;5133363;27;20054;-61
2022/10/31 06:33:36;;;;;;;11.23;8.82;;;333.10;2329.60;;;;;;5132987;27;20020;-61
2022/10/31 06:36:02;;;;;;;21.08;15.40;;;333.10;2329.60;;;;;;5133324;27;20030;-61
2022/10/31 06:38:27;;;;;;;16.95;11.93;;;333.10;2329.60;;;;;;5132520;27;20063;-61
2022/10/31 06:40:54;;;;;;;15.60;9.80;;;333.20;2329.60;;;;;;5133005;27;20107;-60
2022/10/31 06:43:20;;;;;;;13.43;9.23;;;333.30;2329.60;;;;;;5132710;27;20118;-60
2022/10/31 06:45:46;;;;;;;16.17;9.63;;;333.40;2329.60;;;;;;5132974;27;20046;-61
2022/10/31 06:48:12;;;;;;;17.88;9.85;;;333.40;2329.60;;;;;;5138240;27;20471;-60
2022/10/31 06:50:38;;;;;;;32.13;21.40;;;333.50;2329.60;;;;;;5153185;27;20031;-60
2022/10/31 06:53:03;;;;;;;35.38;24.45;;;333.60;2329.60;;;;;;5153638;27;20098;-61
2022/10/31 06:55:29;;;;;;;49.72;34.95;;;333.60;2329.60;;;;;;5153362;27;20376;-63
2022/10/31 06:57:58;;;;;;;42.03;31.30;;;333.50;2329.60;;;;;;5153228;27;20033;-62
2022/10/31 07:00:24;;;;;;;51.72;38.72;;;333.50;2329.60;;;;;;5153303;27;20114;-59
2022/10/31 07:03:09;;;;;;;44.22;33.58;;;333.60;2329.60;;;;;;5153237;27;20022;-59
2022/10/31 07:05:35;;;;;;;67.45;47.40;;;333.70;2329.60;;;;;;5150853;27;20489;-61
2022/10/31 07:08:03;;;;;;;57.60;43.42;;;333.40;2329.60;;;;;;5153869;27;20025;-59
2022/10/31 07:10:31;;;;;;;53.15;36.72;;;333.30;2329.60;;;;;;5152914;27;20035;-59
2022/10/31 07:12:59;;;;;;;57.90;42.88;;;333.40;2329.60;;;;;;5152920;27;20027;-60
2022/10/31 07:15:26;;;;;;;69.95;46.42;;;333.50;2329.60;;;;;;5153025;27;20027;-60
2022/10/31 07:17:52;;;;;;;62.70;47.85;;;333.70;2329.60;;;;;;5152900;27;20066;-59
2022/10/31 07:20:18;;;;;;;62.38;44.95;;;358.40;2329.60;;;;;;5152722;27;20034;-60
2022/10/31 07:22:44;;;;;;;43.53;30.73;;;359.20;2329.60;;;;;;5152760;27;20015;-59
2022/10/31 07:25:10;;;;;;;47.67;29.83;;;410.30;2355.20;;;;;;5152789;27;20035;-61
2022/10/31 07:27:37;;;;;;;40.85;36.17;;;460.80;2380.80;;;;;;5152682;27;20040;-61
2022/10/31 07:30:07;;;;;;;41.97;33.38;;;461.20;2380.80;;;;;;5152731;27;20117;-61
2022/10/31 07:32:39;;;;;;;30.55;25.00;;;461.10;2380.80;;;;;;5152967;27;20031;-60
2022/10/31 07:35:06;;;;;;;26.77;20.80;;;461.50;2380.80;;;;;;5152592;27;20045;-60
2022/10/31 07:37:32;;;;;;;25.55;20.05;;;461.60;2380.80;;;;;;5152751;27;20026;-58
2022/10/31 07:39:57;;;;;;;31.27;22.63;;;486.50;2329.60;;;;;;5124550;27;20055;-60
2022/10/31 07:42:23;;;;;;;25.23;18.67;;;487.00;2252.80;;;;;;5111396;28;20461;-60
2022/10/31 07:44:49;;;;;;;28.98;18.30;;;512.30;2150.40;;;;;;5111053;28;20031;-60
2022/10/31 07:47:14;;;;;;;35.65;24.30;;;512.90;2073.60;;;;;;5110922;28;20408;-59
2022/10/31 07:49:40;;;;;;;29.48;24.77;;;538.00;2022.40;;;;;;5111242;28;20036;-60
2022/10/31 07:52:06;;;;;;;40.15;27.05;;;563.70;1945.60;;;;;;5110987;28;20027;-60
2022/10/31 07:54:31;;;;;;;33.78;26.10;;;564.00;1920.00;;;;;;5111055;28;20034;-61
2022/10/31 07:56:57;;;;;;;34.00;26.02;;;589.70;1792.00;;;;;;5110826;28;20020;-61
2022/10/31 07:59:22;;;;;;;39.67;31.40;;;614.80;1740.80;;;;;;5110637;28;20605;-59
2022/10/31 08:01:48;;;;;;;36.30;29.42;;;615.10;1715.20;;;;;;5110735;28;20024;-60
2022/10/31 08:04:14;;;;;;;40.20;33.55;;;666.00;1638.40;;;;;;5110921;28;20057;-61
2022/10/31 08:06:39;;;;;;;52.92;33.75;;;666.10;1638.40;;;;;;5110892;28;20377;-59
2022/10/31 08:09:05;;;;;;;35.13;31.45;;;691.30;1587.20;;;;;;5110461;28;20040;-60
2022/10/31 08:11:31;;;;;;;47.90;35.10;;;691.60;1561.60;;;;;;5110937;28;20019;-61
2022/10/31 08:13:56;;;;;;;50.65;42.33;;;666.20;1587.20;;;;;;5110449;28;20475;-61
2022/10/31 08:16:22;;;;;;;51.40;35.67;;;665.90;1612.80;;;;;;5110907;28;20102;-62
2022/10/31 08:18:48;;;;;;;33.38;24.65;;;666.00;1612.80;;;;;;5110355;28;20024;-60
2022/10/31 08:21:13;;;;;;;29.00;21.67;;;640.50;1612.80;;;;;;5110625;28;20060;-60
2022/10/31 08:23:39;;;;;;;26.45;21.85;;;640.60;1587.20;;;;;;5110549;28;20043;-61
2022/10/31 08:26:05;;;;;;;36.08;28.08;;;640.90;1587.20;;;;;;5110411;28;20023;-60
2022/10/31 08:28:32;;;;;;;38.25;27.35;;;666.30;1561.60;;;;;;5110728;28;20440;-61
2022/10/31 08:30:58;;;;;;;25.25;21.55;;;691.90;1484.80;;;;;;5110537;28;20035;-60
2022/10/31 08:33:24;;;;;;;22.35;17.70;;;691.60;1484.80;;;;;;5110588;28;20024;-62
2022/10/31 08:35:50;;;;;;;30.45;18.90;;;691.60;1510.40;;;;;;5110471;28;20028;-61
2022/10/31 08:38:15;;;;;;;22.48;16.55;;;691.40;1510.40;;;;;;5110231;28;20047;-60
2022/10/31 08:40:41;;;;;;;26.15;22.15;;;691.60;1510.40;;;;;;5110344;28;20047;-62
2022/10/31 08:43:15;;;;;;;27.45;20.42;;;691.90;1484.80;;;;;;5110257;28;20099;-60
2022/10/31 08:45:42;;;;;;;24.35;17.40;;;691.60;1484.80;;;;;;5109158;28;20023;-62
2022/10/31 08:48:13;;;;;;;27.08;18.92;;;691.40;1484.80;;;;;;5110253;28;20023;-60
2022/10/31 08:50:40;;;;;;;23.33;18.77;;;691.40;1510.40;;;;;;5110041;28;20067;-58
2022/10/31 08:53:06;;;;;;;27.20;18.30;;;691.80;1484.80;;;;;;5110233;28;20034;-61
2022/10/31 08:55:35;;;;;;;22.80;17.95;;;691.40;1484.80;;;;;;5109943;28;20031;-62
2022/10/31 08:58:01;;;;;;;24.20;20.42;;;691.40;1510.40;;;;;;5110349;28;20430;-61
2022/10/31 09:00:26;;;;;;;25.48;19.58;;;691.80;1459.20;;;;;;5110103;28;20019;-61
2022/10/31 09:03:00;;;;;;;22.55;18.33;;;691.80;1459.20;;;;;;5110286;28;20023;-61
2022/10/31 09:05:26;;;;;;;29.73;25.60;;;691.40;1510.40;;;;;;5110087;28;20024;-60
2022/10/31 09:07:56;;;;;;;25.70;23.15;;;666.50;1536.00;;;;;;5110132;28;20050;-59
2022/10/31 09:10:23;;;;;;;30.83;19.55;;;691.60;1510.40;;;;;;5110228;28;20032;-61
2022/10/31 09:12:58;;;;;;;20.15;16.60;;;666.00;1536.00;;;;;;5113436;28;20028;-60
2022/10/31 09:15:25;;;;;;;24.08;16.65;;;640.70;1510.40;;;;;;5114213;28;20023;-62
2022/10/31 09:17:51;;;;;;;21.52;17.38;;;615.20;1612.80;;;;;;5114073;28;20119;-61
2022/10/31 09:20:18;;;;;;;25.40;17.83;;;615.10;1638.40;;;;;;5113988;28;20511;-60
2022/10/31 09:22:44;;;;;;;25.80;15.57;;;614.70;1664.00;;;;;;5114056;28;20031;-62
2022/10/31 09:25:09;;;;;;;23.70;15.77;;;589.60;1689.60;;;;;;5114034;28;20023;-61
2022/10/31 09:27:35;;;;;;;25.17;16.17;;;589.40;1715.20;;;;;;5113871;28;20012;-61
2022/10/31 09:30:01;;;;;;;28.27;15.63;;;589.10;1740.80;;;;;;5113876;28;20415;-61
2022/10/31 09:32:27;;;;;;;23.42;14.77;;;588.80;1766.40;;;;;;5113699;28;20024;-60
2022/10/31 09:34:53;;;;;;;24.83;15.88;;;564.00;1792.00;;;;;;5114278;28;20020;-60
2022/10/31 09:37:18;;;;;;;21.50;16.05;;;564.10;1766.40;;;;;;5113403;28;20020;-60
2022/10/31 09:39:44;;;;;;;19.10;15.18;;;564.00;1792.00;;;;;;5113533;28;20519;-59
2022/10/31 09:42:32;;;;;;;24.67;15.07;;;563.70;1792.00;;;;;;5113956;28;20023;-59
2022/10/31 09:45:23;;;;;;;23.88;14.15;;;563.90;1792.00;;;;;;5114207;27;20110;-59
2022/10/31 09:48:00;;;;;;;21.73;16.38;;;563.70;1817.60;;;;;;5113154;28;20499;-59
2022/10/31 09:50:55;;;;;;;20.83;13.93;;;563.90;1817.60;;;;;;5113376;28;20088;-60
2022/10/31 09:53:26;;;;;;;21.75;13.98;;;563.80;1817.60;;;;;;5111359;28;20040;-59
2022/10/31 09:55:54;;;;;;;14.27;11.57;;;563.90;1817.60;;;;;;5113578;28;20039;-59
2022/10/31 09:58:24;;;;;;;22.50;11.00;;;564.00;1817.60;;;;;;5113270;28;20024;-59
2022/10/31 10:00:52;;;;;;;17.35;11.02;;;563.40;1817.60;;;;;;5113247;28;20048;-60
2022/10/31 10:03:38;;;;;;;14.63;11.52;;;563.50;1817.60;;;;;;5113217;28;20027;-59
2022/10/31 10:06:19;;;;;;;23.40;12.23;;;563.60;1817.60;;;;;;5113206;28;20539;-60
2022/10/31 10:08:44;;;;;;;22.02;14.23;;;563.60;1817.60;;;;;;5112863;28;20473;-60
2022/10/31 10:11:41;;;;;;;21.60;13.85;;;563.50;1817.60;;;;;;5113092;28;20085;-59
2022/10/31 10:14:34;;;;;;;20.63;14.40;;;563.40;1843.20;;;;;;5112958;28;20153;-59
2022/10/31 10:17:12;;;;;;;23.83;14.47;;;563.40;1843.20;;;;;;5113096;28;20027;-60
2022/10/31 10:19:48;;;;;;;20.63;13.60;;;563.40;1843.20;;;;;;5112588;28;20306;-60
2022/10/31 10:22:20;;;;;;;18.88;13.48;;;563.40;1843.20;;;;;;5111771;28;20949;-59
2022/10/31 10:25:10;;;;;;;29.08;18.50;;;563.40;1817.60;;;;;;5113066;28;20488;-60
2022/10/31 10:27:51;;;;;;;28.92;18.63;;;563.30;1843.20;;;;;;5112855;28;20035;-61
2022/10/31 10:30:59;;;;;;;23.02;17.85;;;563.60;1817.60;;;;;;5112376;28;20059;-60
2022/10/31 10:33:52;;;;;;;24.13;17.83;;;563.60;1817.60;;;;;;5029653;28;20052;-60
2022/10/31 10:36:40;;;;;;;19.80;14.43;;;563.60;1817.60;;;;;;5029559;28;20037;-60
2022/10/31 10:39:18;;;;;;;24.35;17.80;;;563.60;1817.60;;;;;;5035031;28;20064;-60
2022/10/31 10:47:41;;;;;;;27.65;24.73;;;563.60;1817.60;;;;;;5049436;28;20067;-59
2022/10/31 10:50:23;;;;;;;24.15;21.58;;;563.50;1817.60;;;;;;5049163;28;20128;-59
2022/10/31 10:53:07;;;;;;;27.35;22.67;;;563.70;1817.60;;;;;;5049245;28;20103;-59
2022/10/31 10:55:40;;;;;;;17.15;12.75;;;563.70;1817.60;;;;;;5049602;28;20063;-59
2022/10/31 10:58:09;;;;;;;21.38;14.80;;;563.90;1817.60;;;;;;5049259;28;20065;-59
2022/10/31 11:00:42;;;;;;;15.18;13.35;;;563.90;1817.60;;;;;;5049229;28;20352;-60
2022/10/31 11:03:09;;;;;;;20.47;14.80;;;563.90;1817.60;;;;;;5049094;28;20431;-59
2022/10/31 11:05:40;;;;;;;21.10;15.07;;;563.90;1843.20;;;;;;5049141;28;20266;-60
2022/10/31 11:08:06;;;;;;;32.75;14.80;;;563.90;1817.60;;;;;;5050077;28;20087;-59
2022/10/31 11:10:33;;;;;;;20.95;10.98;;;563.90;1843.20;;;;;;5104364;27;20046;-60
2022/10/31 11:13:04;;;;;;;13.15;9.98;;;564.00;1817.60;;;;;;5132303;27;20042;-60
2022/10/31 11:15:34;;;;;;;14.07;9.80;;;564.10;1817.60;;;;;;5132387;27;20030;-59
2022/10/31 11:18:01;;;;;;;17.08;11.18;;;564.00;1817.60;;;;;;5132299;27;20019;-59
2022/10/31 11:20:35;;;;;;;18.80;15.25;;;564.10;1792.00;;;;;;5132047;27;20460;-59
2022/10/31 11:23:23;;;;;;;17.23;12.77;;;564.10;1792.00;;;;;;5132239;27;20068;-60
2022/10/31 11:25:51;;;;;;;11.63;8.98;;;564.10;1792.00;;;;;;5132072;27;20058;-59
2022/10/31 11:28:17;;;;;;;16.45;11.68;;;564.10;1766.40;;;;;;5131874;27;20023;-59
2022/10/31 11:30:50;;;;;;;12.68;8.25;;;588.80;1766.40;;;;;;5131957;27;20042;-59
2022/10/31 11:33:27;;;;;;;16.27;8.68;;;588.90;1766.40;;;;;;5131662;27;20034;-59
2022/10/31 11:35:54;;;;;;;11.95;8.32;;;589.00;1766.40;;;;;;5131681;27;20044;-59
2022/10/31 11:38:32;;;;;;;12.48;10.15;;;589.00;1740.80;;;;;;5131757;27;20050;-59
2022/10/31 11:41:09;;;;;;;9.95;8.25;;;589.00;1740.80;;;;;;5131720;27;20074;-60
2022/10/31 11:43:35;;;;;;;12.70;8.98;;;564.10;1766.40;;;;;;5132062;27;20110;-61
2022/10/31 11:46:10;;;;;;;14.07;8.10;;;589.20;1715.20;;;;;;5131863;27;20413;-59
2022/10/31 11:48:36;;;;;;;14.63;8.77;;;589.20;1715.20;;;;;;5131550;27;20537;-60
2022/10/31 11:51:04;;;;;;;14.02;10.10;;;589.10;1715.20;;;;;;5131939;27;20027;-59
2022/10/31 11:53:33;;;;;;;17.23;10.57;;;589.20;1715.20;;;;;;5131879;27;20019;-60
2022/10/31 11:56:02;;;;;;;16.25;10.93;;;589.20;1715.20;;;;;;5131406;27;20460;-59
2022/10/31 11:58:27;;;;;;;14.38;11.57;;;589.20;1715.20;;;;;;5131534;27;20099;-59
2022/10/31 12:00:55;;;;;;;15.48;10.35;;;589.20;1715.20;;;;;;5131627;27;20464;-59
2022/10/31 12:03:24;;;;;;;22.35;11.18;;;589.30;1715.20;;;;;;5131543;27;20107;-59
2022/10/31 12:06:11;;;;;;;15.05;11.52;;;589.30;1715.20;;;;;;5131322;27;20072;-59
2022/10/31 12:08:38;;;;;;;14.90;12.38;;;589.30;1740.80;;;;;;5131126;27;20028;-59
2022/10/31 12:11:27;;;;;;;15.25;10.77;;;589.30;1740.80;;;;;;5131537;27;20031;-59
2022/10/31 12:14:29;;;;;;;16.95;12.20;;;589.30;1715.20;;;;;;5131303;27;20031;-59
2022/10/31 12:17:02;;;;;;;19.55;15.02;;;589.30;1740.80;;;;;;5127462;27;20496;-59
2022/10/31 12:19:30;;;;;;;17.33;13.50;;;589.30;1740.80;;;;;;5131204;27;20023;-59
2022/10/31 12:22:16;;;;;;;17.05;11.40;;;589.40;1740.80;;;;;;5131093;27;20079;-59
2022/10/31 12:24:44;;;;;;;15.50;12.07;;;589.40;1740.80;;;;;;5131203;27;20023;-59